Time;durP1;ratioP1;P1;durP2;ratioP2;P2;SDS_P1;SDS_P2;PMS_P1;PMS_P2;Temp;Humidity;BMP_temperature;BMP_pressure;BME280_temperature;BME280_humidity;BME280_pressure;Samples;Min_cycle;Max_cycle;Signal;HPM_P1;HPM_P2
2022/04/18 00:00:35;;;;;;;4.40;3.25;;;;;;;8.69;48.42;101934.28;5031454;28;20029;-80
2022/04/18 00:03:03;;;;;;;3.83;2.97;;;;;;;8.64;47.42;101935.97;5033016;28;20428;-80
2022/04/18 00:05:30;;;;;;;4.72;3.10;;;;;;;8.59;48.16;101935.91;5035080;28;20018;-80
2022/04/18 00:07:55;;;;;;;5.50;3.33;;;;;;;8.55;48.36;101928.97;5035249;28;20039;-80
2022/04/18 00:10:21;;;;;;;6.17;3.57;;;;;;;8.47;49.19;101934.06;5035710;28;20017;-80
2022/04/18 00:12:46;;;;;;;5.27;3.50;;;;;;;8.41;49.82;101923.63;5034901;28;20442;-80
2022/04/18 00:15:11;;;;;;;6.13;3.80;;;;;;;8.37;48.62;101924.41;5035561;28;20022;-80
2022/04/18 00:17:37;;;;;;;7.10;3.60;;;;;;;8.36;48.14;101927.84;5035546;28;20394;-80
2022/04/18 00:20:03;;;;;;;5.80;3.60;;;;;;;8.36;47.95;101927.84;5034695;28;20501;-80
2022/04/18 00:22:28;;;;;;;6.23;3.70;;;;;;;8.34;48.59;101921.78;5035840;28;20362;-80
2022/04/18 00:24:53;;;;;;;4.95;3.58;;;;;;;8.32;48.81;101926.97;5034960;28;20022;-80
2022/04/18 00:27:18;;;;;;;6.57;4.00;;;;;;;8.27;48.52;101917.41;5034675;28;20072;-80
2022/04/18 00:29:44;;;;;;;6.67;3.63;;;;;;;8.24;48.84;101917.38;5035132;28;20041;-80
2022/04/18 00:32:09;;;;;;;6.45;3.90;;;;;;;8.18;51.13;101919.03;5033350;28;20025;-80
2022/04/18 00:34:34;;;;;;;6.90;3.90;;;;;;;8.15;49.55;101923.31;5034522;28;20426;-80
2022/04/18 00:36:59;;;;;;;6.18;3.47;;;;;;;8.14;49.76;101926.75;5034954;28;20120;-80
2022/04/18 00:39:25;;;;;;;5.05;3.50;;;;;;;8.14;48.26;101927.59;5035220;28;20029;-80
2022/04/18 00:41:50;;;;;;;7.15;3.70;;;;;;;8.18;48.86;101919.03;5034084;28;20098;-80
2022/04/18 00:44:15;;;;;;;4.13;3.20;;;;;;;8.17;48.78;101929.34;5034869;28;20041;-80
2022/04/18 00:46:41;;;;;;;4.75;3.30;;;;;;;8.12;48.15;101925.84;5034988;28;20477;-80
2022/04/18 00:49:06;;;;;;;5.67;3.43;;;;;;;8.09;48.32;101920.63;5034273;28;20025;-80
2022/04/18 00:51:31;;;;;;;4.63;3.25;;;;;;;8.02;48.79;101923.16;5035172;28;20026;-81
2022/04/18 00:53:58;;;;;;;3.92;2.92;;;;;;;7.93;50.97;101919.59;5034591;28;20029;-80
2022/04/18 00:56:24;;;;;;;5.15;3.40;;;;;;;7.87;48.82;101923.84;5034285;28;20028;-80
2022/04/18 00:58:50;;;;;;;4.32;3.22;;;;;;;7.80;49.84;101922.00;5034702;28;20387;-80
2022/04/18 01:01:16;;;;;;;4.27;3.20;;;;;;;7.70;50.08;101917.56;5034640;28;20041;-80
2022/04/18 01:03:43;;;;;;;4.55;3.40;;;;;;;7.65;50.14;101919.22;5033916;28;20029;-80
2022/04/18 01:06:10;;;;;;;4.72;3.35;;;;;;;7.57;50.14;101919.09;5034616;28;20051;-80
2022/04/18 01:08:35;;;;;;;4.90;3.30;;;;;;;7.50;50.75;101910.41;5033506;28;20034;-80
2022/04/18 01:11:02;;;;;;;4.70;3.40;;;;;;;7.42;50.90;101904.25;5034558;28;20440;-80
2022/04/18 01:13:28;;;;;;;6.45;3.47;;;;;;;7.33;50.08;101907.56;5034913;28;20026;-80
2022/04/18 01:15:59;;;;;;;4.43;3.22;;;;;;;7.26;51.15;101898.84;5033159;28;20449;-80
2022/04/18 01:18:24;;;;;;;4.90;3.30;;;;;;;7.19;51.67;101904.78;5034433;28;20061;-80
2022/04/18 01:20:50;;;;;;;3.30;2.80;;;;;;;7.12;51.40;101900.34;5034194;28;20064;-80
2022/04/18 01:23:17;;;;;;;5.20;3.30;;;;;;;7.06;54.30;101908.84;5033759;28;20029;-80
2022/04/18 01:31:12;;;;;;;4.40;3.10;;;;;;;6.89;51.48;101902.53;5033713;28;20421;-80
2022/04/18 01:33:38;;;;;;;5.13;3.45;;;;;;;6.86;51.88;101905.94;5033689;28;20397;-80
2022/04/18 01:36:04;;;;;;;3.97;3.00;;;;;;;6.79;53.65;101904.09;5033425;28;20041;-80
2022/04/18 01:38:29;;;;;;;4.53;2.87;;;;;;;6.72;52.94;101910.00;5033507;28;20094;-80
2022/04/18 01:40:54;;;;;;;4.00;2.90;;;;;;;6.59;52.02;101914.94;5033962;28;20445;-81
2022/04/18 01:43:22;;;;;;;4.53;2.75;;;;;;;6.56;51.72;101907.13;5033999;28;20025;-80
2022/04/18 01:45:47;;;;;;;4.82;2.92;;;;;;;6.49;52.42;101905.28;5033145;28;20033;-80
2022/04/18 01:48:13;;;;;;;4.22;2.97;;;;;;;6.45;54.02;101906.06;5033916;28;20458;-80
2022/04/18 01:50:39;;;;;;;3.85;3.00;;;;;;;6.46;51.94;101906.09;5033641;28;20071;-80
2022/04/18 01:53:05;;;;;;;4.60;3.03;;;;;;;6.43;52.41;101907.72;5033882;28;20056;-80
2022/04/18 01:55:31;;;;;;;4.03;2.90;;;;;;;6.41;52.74;101905.13;5034082;28;20048;-80
2022/04/18 01:57:56;;;;;;;3.93;2.70;;;;;;;6.39;52.08;101899.06;5032704;28;20409;-80
2022/04/18 02:00:21;;;;;;;3.33;2.80;;;;;;;6.38;52.67;101904.22;5033735;28;20378;-80
2022/04/18 02:02:46;;;;;;;3.73;2.80;;;;;;;6.33;52.28;101889.50;5033481;28;20033;-80
2022/04/18 02:05:12;;;;;;;4.18;2.95;;;;;;;6.31;52.44;101891.19;5032957;28;20041;-80
2022/04/18 02:07:38;;;;;;;4.95;2.92;;;;;;;6.29;53.35;101899.75;5033179;28;20029;-80
2022/04/18 02:10:04;;;;;;;3.13;2.70;;;;;;;6.27;52.51;101893.69;5033675;28;20064;-80
2022/04/18 02:12:29;;;;;;;3.63;2.70;;;;;;;6.24;54.03;101893.63;5032717;28;20037;-80
2022/04/18 02:14:55;;;;;;;3.78;2.72;;;;;;;6.20;53.86;101894.41;5033348;28;20028;-80
2022/04/18 02:17:20;;;;;;;2.92;2.40;;;;;;;6.13;55.44;101888.25;5033304;28;20382;-80
2022/04/18 02:19:46;;;;;;;3.37;2.40;;;;;;;6.05;53.51;101890.69;5031745;28;20053;-80
2022/04/18 02:22:12;;;;;;;3.10;2.60;;;;;;;6.01;53.25;101892.31;5032810;28;20430;-80
2022/04/18 02:24:38;;;;;;;3.05;2.50;;;;;;;5.93;53.74;101887.81;5032329;28;20389;-80
2022/04/18 02:27:04;;;;;;;4.18;2.63;;;;;;;5.90;54.85;101891.19;5031579;28;20029;-80
2022/04/18 02:29:29;;;;;;;3.85;2.72;;;;;;;5.86;53.73;101884.22;5032672;28;20481;-80
2022/04/18 02:34:40;;;;;;;2.95;2.50;;;;;;;5.75;54.79;101880.56;5031755;28;20390;-80
2022/04/18 02:37:06;;;;;;;3.03;2.50;;;;;;;5.72;53.83;101884.84;5032145;28;20025;-80
2022/04/18 02:39:31;;;;;;;3.33;2.55;;;;;;;5.69;54.05;101879.59;5032427;28;20437;-80
2022/04/18 02:41:59;;;;;;;2.85;2.47;;;;;;;5.64;54.22;101880.34;5031136;28;20044;-80
2022/04/18 02:44:25;;;;;;;3.10;2.58;;;;;;;5.62;54.40;101871.72;5032106;28;20052;-80
2022/04/18 02:46:50;;;;;;;3.83;2.67;;;;;;;5.60;54.60;101871.69;5031984;28;20420;-80
2022/04/18 02:49:15;;;;;;;3.00;2.50;;;;;;;5.58;54.28;101868.19;5031789;28;20033;-80
2022/04/18 02:51:40;;;;;;;4.05;2.70;;;;;;;5.60;53.88;101866.53;5031857;28;20539;-80
2022/04/18 02:54:06;;;;;;;2.90;2.60;;;;;;;5.60;54.35;101863.97;5031219;28;20044;-80
2022/04/18 02:56:31;;;;;;;3.30;2.70;;;;;;;5.56;54.64;101860.47;5031931;28;20074;-80
2022/04/18 02:58:57;;;;;;;3.10;2.70;;;;;;;5.53;54.30;101859.50;5031829;28;20500;-80
2022/04/18 03:01:22;;;;;;;3.20;2.47;;;;;;;5.49;54.52;101858.56;5031412;28;20112;-80
2022/04/18 03:03:47;;;;;;;3.20;2.75;;;;;;;5.47;54.77;101851.66;5031818;28;20017;-80
2022/04/18 03:06:13;;;;;;;3.55;2.70;;;;;;;5.40;57.61;101845.50;5032199;28;20119;-80
2022/04/18 03:08:38;;;;;;;3.28;2.78;;;;;;;5.34;55.21;101843.66;5031156;28;20037;-80
2022/04/18 03:11:03;;;;;;;3.90;2.70;;;;;;;5.33;55.17;101846.19;5032128;28;20431;-80
2022/04/18 03:13:29;;;;;;;3.03;2.72;;;;;;;5.30;55.09;101844.41;5031327;28;20096;-80
2022/04/18 03:15:56;;;;;;;3.73;2.50;;;;;;;5.26;55.39;101845.19;5031171;28;20034;-80
2022/04/18 03:20:56;;;;;;;4.63;2.60;;;;;;;5.15;55.54;101839.78;5092215;28;20354;-80
2022/04/18 03:23:21;;;;;;;2.40;2.20;;;;;;;5.12;55.50;101842.31;5109992;28;20036;-80
2022/04/18 03:25:46;;;;;;;3.05;2.45;;;;;;;5.10;56.67;101849.13;5097468;28;20031;-80
2022/04/18 03:28:11;;;;;;;3.15;2.40;;;;;;;5.06;56.97;101843.03;5089986;28;20032;-80
2022/04/18 03:30:37;;;;;;;3.22;2.55;;;;;;;5.02;56.21;101842.91;5089515;28;20373;-80
2022/04/18 03:33:03;;;;;;;3.50;2.70;;;;;;;4.99;55.65;101848.84;5090433;28;20020;-80
2022/04/18 03:35:30;;;;;;;2.55;2.30;;;;;;;4.99;56.51;101841.13;5090288;28;20153;-80
2022/04/18 03:40:42;;;;;;;2.33;2.10;;;;;;;4.94;58.36;101846.16;5089701;28;20100;-80
2022/04/18 03:43:08;;;;;;;3.08;2.50;;;;;;;4.91;56.19;101847.78;5104313;28;20024;-80
2022/04/18 03:45:33;;;;;;;3.00;2.40;;;;;;;4.89;56.40;101847.78;5109783;28;20484;-80
2022/04/18 03:47:58;;;;;;;4.32;2.50;;;;;;;4.89;55.99;101852.03;5109887;28;20024;-80
2022/04/18 03:50:24;;;;;;;2.75;2.40;;;;;;;4.87;56.20;101852.00;5109411;28;20475;-80
2022/04/18 03:52:49;;;;;;;3.58;2.88;;;;;;;4.85;56.65;101853.66;5109916;28;20032;-80
2022/04/18 03:55:14;;;;;;;3.88;2.70;;;;;;;4.81;56.71;101849.25;5109780;28;20139;-80
2022/04/18 03:57:39;;;;;;;2.60;2.35;;;;;;;4.74;58.18;101853.38;5108910;28;20024;-80
2022/04/18 04:00:06;;;;;;;2.95;2.55;;;;;;;4.68;57.33;101847.22;5109891;28;20040;-80
2022/04/18 04:02:32;;;;;;;2.67;2.40;;;;;;;4.64;56.81;101841.13;5109816;28;20137;-80
2022/04/18 04:04:57;;;;;;;2.83;2.50;;;;;;;4.59;56.86;101842.72;5108855;28;20162;-80
2022/04/18 04:07:22;;;;;;;3.75;2.67;;;;;;;4.58;57.13;101846.13;5099276;28;20020;-80
2022/04/18 04:09:48;;;;;;;3.45;2.50;;;;;;;4.55;57.14;101841.78;5089046;28;20111;-80
2022/04/18 04:12:13;;;;;;;3.45;2.70;;;;;;;4.55;57.75;101836.63;5088596;28;20016;-80
2022/04/18 04:14:38;;;;;;;3.20;2.60;;;;;;;4.52;57.23;101835.66;5088819;28;20039;-80
2022/04/18 04:17:04;;;;;;;3.70;2.50;;;;;;;4.47;58.85;101833.88;5089569;28;20017;-80
2022/04/18 04:19:29;;;;;;;2.88;2.42;;;;;;;4.48;57.12;101837.28;5088301;28;20400;-80
2022/04/18 04:21:55;;;;;;;3.17;2.53;;;;;;;4.48;57.01;101837.28;5088851;28;20093;-80
2022/04/18 04:24:20;;;;;;;2.72;2.45;;;;;;;4.45;56.61;101832.94;5088932;28;20028;-80
2022/04/18 04:26:45;;;;;;;3.92;2.70;;;;;;;4.44;57.03;101841.50;5088387;28;20024;-80
2022/04/18 04:29:10;;;;;;;2.85;2.60;;;;;;;4.43;57.42;101833.75;5089253;28;20024;-80
2022/04/18 04:31:36;;;;;;;4.75;2.88;;;;;;;4.39;57.16;101831.91;5079320;28;20032;-80
2022/04/18 04:34:01;;;;;;;3.13;2.55;;;;;;;4.34;59.37;101829.22;5074367;28;20385;-80
2022/04/18 04:36:26;;;;;;;3.67;2.55;;;;;;;4.30;57.57;101832.53;5076797;28;20028;-80
2022/04/18 04:38:51;;;;;;;3.75;2.53;;;;;;;4.28;57.58;101829.94;5075114;28;20427;-80
2022/04/18 04:41:18;;;;;;;2.53;2.33;;;;;;;4.28;57.94;101839.31;5074651;28;20083;-80
2022/04/18 04:43:46;;;;;;;3.47;2.50;;;;;;;4.25;58.66;101841.84;5075375;28;20411;-80
2022/04/18 04:46:11;;;;;;;3.17;2.58;;;;;;;4.23;57.59;101840.94;5075298;28;20435;-80
2022/04/18 04:48:36;;;;;;;3.72;2.70;;;;;;;4.25;57.35;101847.84;5074396;28;20028;-80
2022/04/18 04:51:03;;;;;;;3.30;2.60;;;;;;;4.26;57.41;101844.44;5075026;28;20380;-80
2022/04/18 04:53:28;;;;;;;4.28;2.88;;;;;;;4.25;58.31;101845.28;5075211;28;20028;-80
2022/04/18 04:55:53;;;;;;;2.65;2.42;;;;;;;4.23;59.18;101851.19;5074264;28;20475;-80
2022/04/18 04:58:19;;;;;;;3.05;2.50;;;;;;;4.17;58.64;101850.19;5075262;28;20055;-80
2022/04/18 05:00:44;;;;;;;3.95;2.63;;;;;;;4.17;57.93;101855.34;5073833;28;20097;-79
2022/04/18 05:03:09;;;;;;;4.45;2.75;;;;;;;4.17;58.12;101855.34;5090982;28;20039;-80
2022/04/18 05:05:35;;;;;;;3.67;2.60;;;;;;;4.13;59.14;101850.97;5095071;28;20020;-80
2022/04/18 05:08:03;;;;;;;3.75;2.55;;;;;;;4.09;58.97;101849.13;5093661;28;20054;-80
2022/04/18 05:10:29;;;;;;;3.38;2.50;;;;;;;4.08;58.72;101849.94;5095177;28;20032;-80
2022/04/18 05:12:54;;;;;;;2.65;2.30;;;;;;;4.10;59.01;101855.16;5094950;28;20023;-80
2022/04/18 05:15:19;;;;;;;3.58;2.80;;;;;;;4.09;60.92;101853.41;5094116;28;20486;-80
2022/04/18 05:17:45;;;;;;;4.10;2.33;;;;;;;4.08;59.52;101851.66;5094527;28;20028;-80
2022/04/18 05:20:13;;;;;;;3.85;2.50;;;;;;;4.11;60.85;101857.75;5094593;28;20052;-80
2022/04/18 05:22:39;;;;;;;2.67;2.40;;;;;;;4.15;61.44;101861.25;5093874;28;20032;-80
2022/04/18 05:25:04;;;;;;;3.53;2.38;;;;;;;4.15;60.97;101849.31;5095046;28;20475;-80
2022/04/18 05:27:30;;;;;;;4.35;2.47;;;;;;;4.17;59.51;101850.19;5094471;28;20142;-80
2022/04/18 05:29:55;;;;;;;4.03;2.58;;;;;;;4.23;59.10;101856.34;5093821;28;20397;-80
2022/04/18 05:32:20;;;;;;;5.50;3.17;;;;;;;4.36;59.68;101847.25;5093040;28;20391;-80
2022/04/18 05:34:46;;;;;;;4.95;3.28;;;;;;;4.42;58.58;101855.13;5094236;28;20121;-80
2022/04/18 05:37:11;;;;;;;5.68;3.33;;;;;;;4.52;59.04;101858.81;5093544;28;20027;-80
2022/04/18 05:39:36;;;;;;;5.60;3.22;;;;;;;4.60;59.30;101858.19;5093915;28;20357;-79
2022/04/18 05:42:03;;;;;;;4.97;2.90;;;;;;;4.63;61.83;101860.84;5094235;28;20032;-80
2022/04/18 05:44:31;;;;;;;6.60;3.20;;;;;;;4.66;60.46;101857.47;5093273;28;20062;-80
2022/04/18 05:46:56;;;;;;;5.47;3.38;;;;;;;4.71;61.97;101860.16;5094098;28;20055;-80
2022/04/18 05:49:21;;;;;;;5.50;3.22;;;;;;;4.79;59.10;101858.63;5094436;28;20024;-79
2022/04/18 05:51:47;;;;;;;5.25;3.20;;;;;;;4.87;59.11;101856.25;5093135;28;20122;-81
2022/04/18 05:54:12;;;;;;;4.78;2.92;;;;;;;4.94;60.79;101855.59;5094248;28;20032;-81
2022/04/18 05:56:37;;;;;;;5.25;2.75;;;;;;;5.04;60.91;101854.97;5092287;28;20395;-82
2022/04/18 05:59:03;;;;;;;6.05;2.95;;;;;;;5.13;61.42;101859.44;5093396;28;20090;-81
2022/04/18 06:01:29;;;;;;;6.10;3.25;;;;;;;5.22;59.82;101858.81;5093796;28;20056;-78
2022/04/18 06:03:55;;;;;;;5.78;3.20;;;;;;;5.32;59.11;101863.34;5092748;28;20024;-78
2022/04/18 06:06:20;;;;;;;5.18;2.97;;;;;;;5.43;59.42;101857.56;5093972;28;20426;-79
2022/04/18 06:08:45;;;;;;;4.55;3.03;;;;;;;5.49;59.61;101858.56;5092171;28;20080;-79
2022/04/18 06:11:11;;;;;;;4.75;3.20;;;;;;;5.61;59.70;101865.69;5092712;28;20020;-79
2022/04/18 06:13:36;;;;;;;5.28;3.28;;;;;;;5.71;60.81;101865.06;5093372;28;20048;-78
2022/04/18 06:16:01;;;;;;;6.00;3.35;;;;;;;5.81;60.03;101870.41;5093793;28;20028;-79
2022/04/18 06:18:27;;;;;;;5.53;2.92;;;;;;;5.91;60.27;101863.75;5093025;28;20485;-79
2022/04/18 06:20:53;;;;;;;4.68;3.30;;;;;;;6.01;59.33;101858.81;5092966;28;20059;-79
2022/04/18 06:23:27;;;;;;;5.55;3.17;;;;;;;6.13;59.69;101876.25;5093833;28;20036;-78
2022/04/18 06:25:52;;;;;;;4.50;2.78;;;;;;;6.22;58.65;101867.81;5092656;28;20020;-79
2022/04/18 06:28:19;;;;;;;3.72;2.60;;;;;;;6.32;58.96;101868.88;5093472;28;20040;-79
2022/04/18 06:30:44;;;;;;;3.47;2.85;;;;;;;6.43;57.95;101858.72;5091826;28;20099;-82
2022/04/18 06:33:11;;;;;;;5.28;3.30;;;;;;;6.55;58.57;101866.69;5092323;28;20134;-82
2022/04/18 06:35:36;;;;;;;4.82;3.20;;;;;;;6.67;57.80;101866.06;5093225;28;20024;-80
2022/04/18 06:38:01;;;;;;;4.97;3.22;;;;;;;6.82;58.46;101865.44;5093529;28;20034;-80
2022/04/18 06:40:27;;;;;;;5.07;3.33;;;;;;;6.95;57.79;101864.81;5092517;28;20103;-81
2022/04/18 06:42:52;;;;;;;5.10;3.33;;;;;;;7.11;57.84;101862.44;5093312;28;20365;-82
2022/04/18 06:45:17;;;;;;;3.60;2.90;;;;;;;7.23;58.41;101865.22;5093301;28;20032;-82
2022/04/18 06:47:46;;;;;;;5.60;3.40;;;;;;;7.37;56.54;101864.56;5092240;28;20037;-81
2022/04/18 06:50:12;;;;;;;5.78;3.60;;;;;;;7.50;56.28;101865.59;5093060;28;20064;-83
2022/04/18 06:52:39;;;;;;;5.97;3.40;;;;;;;7.65;56.63;101862.38;5093441;28;20050;-85
2022/04/18 06:55:08;;;;;;;4.63;3.00;;;;;;;7.81;56.22;101861.72;5092213;28;20020;-82
2022/04/18 06:57:34;;;;;;;4.53;2.97;;;;;;;7.97;54.83;101855.00;5088411;28;20034;-82
2022/04/18 06:59:59;;;;;;;6.37;3.10;;;;;;;8.14;56.41;101852.63;5090418;28;20399;-83
2022/04/18 07:02:25;;;;;;;3.53;3.00;;;;;;;8.31;56.92;101854.53;5087395;28;20024;-83
2022/04/18 07:04:50;;;;;;;3.83;2.90;;;;;;;8.46;53.82;101853.81;5092375;28;20487;-83
2022/04/18 07:07:18;;;;;;;3.50;2.78;;;;;;;8.62;55.28;101862.63;5087552;28;20107;-83
2022/04/18 07:09:43;;;;;;;4.22;2.70;;;;;;;10.18;56.80;101857.47;5090988;28;20028;-81
2022/04/18 07:12:09;;;;;;;3.27;2.70;;;;;;;13.57;42.46;101855.22;5092467;28;20028;-82
2022/04/18 07:14:38;;;;;;;5.33;3.30;;;;;;;15.57;42.36;101855.59;5092106;28;20023;-82
2022/04/18 07:17:05;;;;;;;4.43;2.90;;;;;;;17.24;39.83;101850.00;5080618;28;20024;-82
2022/04/18 07:19:31;;;;;;;;;;;;;;;18.06;39.04;101851.16;5087579;28;20096;-82
2022/04/18 07:21:59;;;;;;;3.78;2.40;;;;;;;18.18;39.16;101846.44;5082373;28;20029;-82
2022/04/18 07:24:25;;;;;;;4.78;2.80;;;;;;;17.72;35.57;101846.06;5072650;28;20162;-82
2022/04/18 07:26:50;;;;;;;5.03;2.80;;;;;;;16.74;38.40;101850.38;5072260;28;20074;-82
2022/04/18 07:29:16;;;;;;;3.27;2.40;;;;;;;15.65;39.68;101855.44;5071797;28;20029;-82
2022/04/18 07:31:42;;;;;;;4.77;3.00;;;;;;;14.77;40.94;101851.81;5072189;28;20099;-82
2022/04/18 07:34:07;;;;;;;3.72;2.80;;;;;;;14.06;41.58;101845.91;5072881;28;20025;-82
2022/04/18 07:36:33;;;;;;;3.67;2.50;;;;;;;13.56;43.65;101854.38;5084085;28;20039;-81
2022/04/18 07:38:58;;;;;;;4.43;3.00;;;;;;;13.17;43.27;101845.19;5092195;28;20050;-82
2022/04/18 07:41:25;;;;;;;2.63;2.43;;;;;;;12.86;43.40;101842.84;5092756;28;20388;-82
2022/04/18 07:43:52;;;;;;;3.03;2.50;;;;;;;12.69;44.74;101840.41;5090947;28;20048;-82
2022/04/18 07:46:18;;;;;;;3.45;2.67;;;;;;;12.53;43.76;101835.34;5091165;28;20039;-82
2022/04/18 07:48:46;;;;;;;4.45;2.80;;;;;;;12.49;45.71;101839.69;5090436;28;20086;-84
2022/04/18 07:53:55;;;;;;;5.20;2.70;;;;;;;12.43;45.16;101837.13;5077937;28;20094;-82
2022/04/18 07:56:21;;;;;;;3.73;3.10;;;;;;;12.47;43.90;101832.75;5072214;28;20020;-83
2022/04/18 07:58:47;;;;;;;3.60;3.00;;;;;;;12.52;43.22;101831.00;5086259;28;20430;-83
2022/04/18 08:01:12;;;;;;;5.20;3.20;;;;;;;12.56;42.79;101832.69;5092811;28;20021;-82
2022/04/18 08:03:38;;;;;;;4.73;3.33;;;;;;;12.63;41.99;101830.91;5091659;28;20035;-82
2022/04/18 08:06:03;;;;;;;5.37;3.30;;;;;;;12.72;43.75;101828.22;5093348;28;20027;-82
2022/04/18 08:08:29;;;;;;;3.67;2.90;;;;;;;12.83;44.22;101834.19;5096577;28;20030;-84
2022/04/18 08:10:54;;;;;;;4.60;2.97;;;;;;;12.98;43.70;101834.94;5095508;28;20016;-85
2022/04/18 08:13:20;;;;;;;5.57;3.10;;;;;;;13.00;44.03;101829.72;5094359;28;20475;-85
2022/04/18 08:15:45;;;;;;;2.80;2.50;;;;;;;13.08;41.49;101828.75;5095852;28;20027;-85
2022/04/18 08:18:11;;;;;;;3.23;2.70;;;;;;;13.20;41.06;101827.78;5093464;28;20027;-85
2022/04/18 08:20:36;;;;;;;3.75;2.70;;;;;;;13.37;40.29;101829.31;5092412;28;20566;-85
2022/04/18 08:23:08;;;;;;;3.97;2.83;;;;;;;13.53;41.41;101828.31;5076008;28;20024;-84
2022/04/18 08:25:33;;;;;;;4.07;2.55;;;;;;;13.68;40.48;101827.25;5074848;28;20062;-83
2022/04/18 08:27:58;;;;;;;3.37;2.40;;;;;;;13.81;41.38;101830.56;5076408;28;20056;-83
2022/04/18 08:30:24;;;;;;;3.33;2.53;;;;;;;13.96;39.61;101823.41;5075788;28;20024;-84
2022/04/18 08:32:50;;;;;;;4.03;2.40;;;;;;;14.10;41.30;101834.53;5074499;28;20107;-84
2022/04/18 08:35:18;;;;;;;3.63;2.72;;;;;;;14.24;38.89;101826.50;5075628;28;20032;-84
2022/04/18 08:37:49;;;;;;;3.88;2.50;;;;;;;14.38;39.31;101833.25;5075281;28;20020;-84
2022/04/18 08:40:15;;;;;;;3.17;2.47;;;;;;;14.48;40.24;101833.09;5074510;28;20464;-84
2022/04/18 08:42:41;;;;;;;2.60;2.30;;;;;;;14.59;39.69;101826.81;5075029;28;20031;-84
2022/04/18 08:45:12;;;;;;;2.95;2.35;;;;;;;14.76;40.01;101831.81;5076674;28;20061;-84
2022/04/18 08:53:09;;;;;;;3.00;2.20;;;;;;;15.10;38.49;101834.69;5094112;28;20423;-83
2022/04/18 08:55:34;;;;;;;2.30;2.10;;;;;;;15.21;38.64;101831.88;5095390;28;20021;-83
2022/04/18 08:57:59;;;;;;;2.80;2.30;;;;;;;15.34;39.18;101835.13;5094900;28;20024;-84
2022/04/18 09:00:24;;;;;;;2.70;2.10;;;;;;;15.45;38.58;101834.91;5088233;28;20024;-84
2022/04/18 09:02:50;;;;;;;2.73;2.10;;;;;;;15.55;37.48;101833.81;5083490;28;20491;-86
2022/04/18 09:05:15;;;;;;;1.80;1.70;;;;;;;15.66;37.44;101822.25;5083107;28;20081;-84
2022/04/18 09:07:42;;;;;;;2.10;1.90;;;;;;;15.80;35.03;101822.00;5083994;28;20024;-84
2022/04/18 09:10:08;;;;;;;2.10;1.90;;;;;;;15.90;38.04;101824.41;5074910;28;20012;-84
2022/04/18 09:12:33;;;;;;;3.00;2.10;;;;;;;16.05;36.00;101820.56;5077428;28;20366;-85
2022/04/18 09:14:58;;;;;;;2.20;2.00;;;;;;;16.20;37.63;101821.13;5078940;28;20024;-84
2022/04/18 09:17:28;;;;;;;2.30;2.10;;;;;;;16.28;37.05;101823.56;5076717;28;20025;-84
2022/04/18 09:20:11;;;;;;;4.90;2.63;;;;;;;16.41;36.17;101822.38;5086548;28;20057;-84
2022/04/18 09:22:48;;;;;;;2.47;2.20;;;;;;;16.49;37.54;101817.81;5070513;28;20067;-83
2022/04/18 09:25:16;;;;;;;2.58;2.20;;;;;;;16.60;34.87;101814.06;5075955;28;20507;-83
2022/04/18 09:27:52;;;;;;;2.20;2.00;;;;;;;16.68;34.97;101822.56;5078593;28;20016;-84
2022/04/18 09:30:17;;;;;;;2.30;2.10;;;;;;;16.74;33.52;101814.56;5081300;28;20472;-84
2022/04/18 09:32:57;;;;;;;2.10;1.90;;;;;;;16.80;35.55;101810.94;5080367;28;20018;-84
2022/04/18 09:35:26;;;;;;;2.80;2.30;;;;;;;16.85;33.07;101809.03;5094275;28;20181;-84
2022/04/18 09:37:53;;;;;;;2.63;2.30;;;;;;;16.86;33.42;101808.13;5088202;28;20039;-84
2022/04/18 09:40:23;;;;;;;2.78;2.05;;;;;;;16.90;34.77;101814.16;5089492;28;20032;-84
2022/04/18 09:42:52;;;;;;;2.92;2.40;;;;;;;16.96;34.68;101807.03;5085426;28;20074;-85
2022/04/18 09:45:18;;;;;;;2.30;2.10;;;;;;;17.03;33.90;101809.50;5091748;28;20107;-85
2022/04/18 09:47:44;;;;;;;2.50;1.88;;;;;;;17.10;34.65;101805.78;5089811;28;20451;-84
2022/04/18 09:53:04;;;;;;;1.88;1.77;;;;;;;17.34;34.05;101799.00;5090006;28;20097;-86
2022/04/18 09:55:30;;;;;;;2.25;2.05;;;;;;;17.47;30.54;101794.28;5090510;28;20024;-86
2022/04/18 09:58:01;;;;;;;2.23;2.03;;;;;;;17.50;33.79;101791.56;5092869;28;20633;-86
2022/04/18 10:00:27;;;;;;;2.05;1.85;;;;;;;17.57;30.93;101781.72;5089733;28;20058;-83
2022/04/18 10:02:53;;;;;;;3.53;2.50;;;;;;;17.65;32.09;101784.13;5081522;28;20480;-85
2022/04/18 10:05:19;;;;;;;2.17;1.98;;;;;;;17.76;33.35;101787.28;5084860;28;20036;-86
2022/04/18 10:07:47;;;;;;;1.80;1.70;;;;;;;17.91;33.46;101784.19;5086031;28;20028;-86
2022/04/18 10:10:13;;;;;;;1.70;1.60;;;;;;;18.02;31.83;101776.00;5074856;28;20070;-84
2022/04/18 10:12:38;;;;;;;2.00;1.80;;;;;;;18.12;32.87;101779.19;5084406;28;20068;-86
2022/04/18 10:15:04;;;;;;;1.93;1.80;;;;;;;18.20;32.58;101781.56;5085284;28;20103;-87
2022/04/18 10:17:32;;;;;;;2.58;2.17;;;;;;;18.20;31.73;101777.16;5080877;28;20480;-82
2022/04/18 10:20:03;;;;;;;2.35;2.15;;;;;;;18.22;30.69;101774.50;5079209;28;20443;-82
2022/04/18 10:22:38;;;;;;;2.00;1.90;;;;;;;18.27;29.63;101772.56;5078891;28;20033;-82
2022/04/18 10:25:18;;;;;;;1.95;1.80;;;;;;;18.37;31.29;101776.63;5076051;28;20035;-82
2022/04/18 10:28:14;;;;;;;2.53;2.30;;;;;;;18.51;30.45;101768.28;5088369;28;20032;-82
2022/04/18 10:30:57;;;;;;;3.58;2.42;;;;;;;18.46;28.26;101769.34;5087116;28;20031;-82
2022/04/18 10:33:23;;;;;;;3.25;2.50;;;;;;;18.45;30.50;101765.00;5086698;28;20028;-82
2022/04/18 10:36:00;;;;;;;2.55;2.35;;;;;;;18.45;30.99;101767.63;5086007;28;20028;-80
2022/04/18 10:38:27;;;;;;;3.17;2.40;;;;;;;18.51;26.06;101759.53;5079826;28;20032;-80
2022/04/18 10:43:58;;;;;;;3.03;2.20;;;;;;;18.56;29.96;101764.63;5074630;28;19922;-80
2022/04/18 10:46:23;;;;;;;2.80;2.45;;;;;;;18.65;30.72;101754.66;5081770;28;20032;-80
2022/04/18 10:49:03;;;;;;;3.77;2.10;;;;;;;18.78;29.90;101751.59;5079240;28;20500;-80
2022/04/18 10:51:33;;;;;;;3.13;2.30;;;;;;;18.86;26.84;101756.59;5072972;28;20037;-80
2022/04/18 10:54:11;;;;;;;4.10;2.40;;;;;;;18.90;27.52;101753.81;5071542;28;20079;-80
2022/04/18 10:56:56;;;;;;;2.50;2.30;;;;;;;18.95;29.44;101749.25;5072252;28;20031;-80
2022/04/18 10:59:36;;;;;;;3.45;2.50;;;;;;;18.97;26.94;101754.47;5071579;28;20070;-80
2022/04/18 11:02:04;;;;;;;4.40;3.05;;;;;;;18.70;27.25;101746.59;5072327;28;20029;-80
2022/04/18 11:04:38;;;;;;;3.85;3.00;;;;;;;18.70;27.99;101748.38;5073032;28;20020;-80
2022/04/18 11:07:09;;;;;;;3.28;2.67;;;;;;;18.74;29.14;101747.34;5072096;28;20032;-80
2022/04/18 11:09:39;;;;;;;2.47;2.20;;;;;;;18.85;29.68;101747.00;5072717;28;20032;-80
2022/04/18 11:12:06;;;;;;;3.97;2.30;;;;;;;19.09;29.69;101745.25;5072786;28;20036;-80
2022/04/18 11:14:37;;;;;;;3.90;2.40;;;;;;;19.14;26.52;101743.31;5071892;28;20411;-80
2022/04/18 11:17:04;;;;;;;4.68;2.80;;;;;;;19.19;26.92;101743.16;5073716;28;20033;-80
2022/04/18 11:19:30;;;;;;;;;;;;;;;19.23;27.44;101745.63;5072721;28;20519;-80
2022/04/18 11:21:56;;;;;;;;;;;;;;;19.12;24.10;101732.84;5072082;28;20330;-80
2022/04/18 11:24:54;;;;;;;3.53;2.70;;;;;;;19.08;27.20;101733.88;5072760;28;19912;-80
2022/04/18 11:27:22;;;;;;;2.78;2.30;;;;;;;19.23;28.33;101732.47;5057161;28;20036;-81
2022/04/18 11:29:52;;;;;;;2.58;2.10;;;;;;;19.43;28.90;101718.50;5071987;28;20082;-80
2022/04/18 11:32:20;;;;;;;3.33;2.50;;;;;;;19.67;28.01;101723.75;5072512;28;20546;-80
2022/04/18 11:34:48;;;;;;;4.15;2.47;;;;;;;19.80;28.25;101723.25;5071374;28;20024;-81
2022/04/18 11:37:28;;;;;;;2.70;2.30;;;;;;;19.93;25.83;101718.41;5072470;28;20036;-81
2022/04/18 11:39:56;;;;;;;2.40;2.20;;;;;;;20.04;27.37;101721.44;5073382;28;20064;-80
2022/04/18 11:42:23;;;;;;;2.45;2.08;;;;;;;20.13;28.73;101723.69;5075269;28;20074;-80
2022/04/18 11:44:54;;;;;;;4.32;2.90;;;;;;;20.26;28.04;101717.91;5076325;28;20032;-80
2022/04/18 11:47:22;;;;;;;4.55;2.70;;;;;;;20.21;28.43;101713.69;5077738;28;20016;-80
2022/04/18 11:49:52;;;;;;;4.10;2.80;;;;;;;20.25;25.51;101714.41;5075509;28;20035;-80
2022/04/18 11:52:24;;;;;;;5.60;3.53;;;;;;;19.97;24.35;101717.34;5076340;28;20040;-80
2022/04/18 11:55:00;;;;;;;4.72;3.55;;;;;;;19.77;24.78;101711.06;5076046;28;20051;-80
2022/04/18 11:57:30;;;;;;;4.85;3.30;;;;;;;19.66;25.77;101710.66;5075725;28;20108;-80